Time;durP1;ratioP1;P1;durP2;ratioP2;P2;SDS_P1;SDS_P2;PMS_P1;PMS_P2;Temp;Humidity;BMP_temperature;BMP_pressure;BME280_temperature;BME280_humidity;BME280_pressure;Samples;Min_cycle;Max_cycle;Signal;HPM_P1;HPM_P2
2021/11/23 00:02:08;;;;;;;;;55.75;44.25;;;;;14.73;79.25;101012.84;146608;563;46020;-80
2021/11/23 00:05:00;;;;;;;;;56.25;44.00;;;;;14.75;78.95;101019.00;146607;584;46914;-78
2021/11/23 00:07:53;;;;;;;;;54.75;45.50;;;;;14.75;78.65;101009.47;146604;602;46020;-78
2021/11/23 00:10:46;;;;;;;;;53.75;42.75;;;;;14.77;78.71;101014.75;146605;603;46914;-77
2021/11/23 00:13:38;;;;;;;;;57.00;45.00;;;;;14.76;79.34;101010.34;146607;719;47010;-72
2021/11/23 00:16:30;;;;;;;;;57.50;45.25;;;;;14.74;78.91;101012.91;146605;656;46014;-72
2021/11/23 00:19:23;;;;;;;;;59.25;46.25;;;;;14.74;78.50;101018.12;146606;571;46010;-72
2021/11/23 00:22:15;;;;;;;;;64.00;49.50;;;;;13.74;78.61;100843.75;146606;695;46035;-76
2021/11/23 00:25:09;;;;;;;;;67.50;52.50;;;;;14.74;78.65;101023.34;146607;595;46020;-73
2021/11/23 00:28:01;;;;;;;;;67.00;53.00;;;;;14.75;78.67;101029.47;146598;611;49010;-74
2021/11/23 00:30:53;;;;;;;;;70.00;55.50;;;;;14.75;78.66;101027.72;146608;571;46014;-73
2021/11/23 00:33:46;;;;;;;;;73.50;62.75;;;;;14.77;78.85;101033.91;146605;564;46017;-73
2021/11/23 00:36:38;;;;;;;;;76.25;66.00;;;;;14.04;79.00;100903.12;146608;652;46009;-73
2021/11/23 00:39:30;;;;;;;;;76.75;66.25;;;;;14.77;79.35;101035.62;146608;589;46016;-73
2021/11/23 00:42:24;;;;;;;;;78.00;71.00;;;;;14.76;79.04;101031.22;146607;563;46015;-73
2021/11/23 00:45:17;;;;;;;;;76.50;67.75;;;;;14.72;78.91;101025.00;146605;665;46913;-73
2021/11/23 00:48:09;;;;;;;;;75.00;65.75;;;;;14.72;79.43;101018.91;146561;577;72032;-73
2021/11/23 00:51:02;;;;;;;;;73.00;61.25;;;;;14.69;78.93;101018.78;146603;605;47014;-72
2021/11/23 00:53:54;;;;;;;;;75.25;61.50;;;;;14.68;79.04;101019.63;146607;584;47010;-73
2021/11/23 00:56:46;;;;;;;;;73.00;63.00;;;;;14.67;78.95;101021.34;146608;564;46012;-73
2021/11/23 00:59:39;;;;;;;;;76.50;67.00;;;;;14.67;79.68;101015.19;146607;594;47010;-73
2021/11/23 01:02:31;;;;;;;;;69.50;58.25;;;;;14.63;80.06;101019.41;146606;628;46016;-79
2021/11/23 01:05:24;;;;;;;;;68.75;55.25;;;;;14.61;79.67;101021.09;146610;676;46010;-78
2021/11/23 01:08:19;;;;;;;;;71.00;56.25;;;;;14.57;79.49;101016.56;146605;577;47012;-80
2021/11/23 01:11:13;;;;;;;;;72.75;62.00;;;;;14.55;79.21;101016.53;146606;579;46020;-76
2021/11/23 01:14:07;;;;;;;;;71.00;55.50;;;;;13.54;79.07;100832.50;146604;718;46016;-79
2021/11/23 01:17:00;;;;;;;;;69.75;55.50;;;;;14.59;79.26;101016.66;146608;593;46010;-83
2021/11/23 01:19:52;;;;;;;;;72.00;55.25;;;;;14.55;79.24;101016.53;146605;773;46016;-80
2021/11/23 01:22:48;;;;;;;;;70.00;55.75;;;;;14.49;79.12;101013.63;146608;654;46020;-77
2021/11/23 01:25:40;;;;;;;;;68.00;55.50;;;;;13.52;79.18;100843.66;146605;610;46016;-82
2021/11/23 01:28:32;;;;;;;;;69.50;57.00;;;;;14.55;78.84;101018.25;146608;590;46020;-81
2021/11/23 01:31:25;;;;;;;;;71.50;56.00;;;;;14.52;79.32;100999.84;146606;591;46016;-75
2021/11/23 01:34:19;;;;;;;;;68.25;54.25;;;;;14.53;79.25;101001.62;146607;585;46011;-74
2021/11/23 01:37:11;;;;;;;;;71.75;57.75;;;;;14.52;79.33;100992.91;146606;606;46913;-74
2021/11/23 01:40:03;;;;;;;;;70.00;56.50;;;;;14.52;79.39;100992.91;146607;608;46010;-76
2021/11/23 01:42:56;;;;;;;;;72.25;58.75;;;;;14.52;79.33;100992.91;146609;573;47012;-75
2021/11/23 01:45:48;;;;;;;;;67.50;52.75;;;;;14.50;79.97;100991.03;146606;569;46010;-75
2021/11/23 01:48:41;;;;;;;;;71.25;55.50;;;;;14.44;80.07;100994.28;146606;597;46014;-74
2021/11/23 01:51:34;;;;;;;;;65.50;49.75;;;;;14.38;79.59;100995.75;146607;626;46020;-74
2021/11/23 01:54:26;;;;;;;;;68.75;51.00;;;;;14.33;79.77;101006.03;146598;570;47913;-74
2021/11/23 01:57:19;;;;;;;;;68.50;52.00;;;;;14.27;79.10;100997.94;146608;569;46020;-74
2021/11/23 02:00:13;;;;;;;;;66.00;49.75;;;;;13.23;79.08;100819.00;146606;745;45016;-74
2021/11/23 02:03:06;;;;;;;;;68.50;52.75;;;;;14.24;78.54;100997.81;146608;706;46010;-73
2021/11/23 02:05:59;;;;;;;;;65.25;50.50;;;;;13.22;78.69;100825.94;146605;624;46014;-75
2021/11/23 02:08:51;;;;;;;;;65.25;50.75;;;;;14.21;78.78;101001.19;146608;590;46020;-75
2021/11/23 02:11:43;;;;;;;;;63.50;49.75;;;;;14.23;78.99;100999.53;146604;658;47014;-75
2021/11/23 02:14:36;;;;;;;;;63.50;49.50;;;;;14.20;78.74;100986.34;146604;586;46020;-77
2021/11/23 02:17:28;;;;;;;;;65.75;51.25;;;;;14.20;78.66;100995.91;146603;564;46012;-77
2021/11/23 02:20:26;;;;;;;;;69.50;50.00;;;;;14.18;78.73;100995.84;146605;621;47010;-78
2021/11/23 02:23:19;;;;;;;;;64.75;49.50;;;;;14.19;78.49;101004.56;146606;602;46033;-78
2021/11/23 02:26:11;;;;;;;;;63.75;49.75;;;;;14.19;78.14;101004.56;146607;651;46021;-76
2021/11/23 02:29:03;;;;;;;;;60.00;47.25;;;;;14.18;78.10;101006.28;146605;638;46024;-76
2021/11/23 02:31:56;;;;;;;;;63.50;48.50;;;;;14.19;79.32;101005.44;146608;583;46020;-77
2021/11/23 02:34:48;;;;;;;;;64.75;49.00;;;;;14.13;78.86;101002.59;146606;581;46012;-77
2021/11/23 02:37:52;;;;;;;;;66.50;51.00;;;;;14.14;78.72;101012.19;146608;571;46020;-76
2021/11/23 02:40:45;;;;;;;;;66.75;51.00;;;;;14.13;78.63;101013.00;146604;578;46016;-79
2021/11/23 02:43:37;;;;;;;;;67.75;51.75;;;;;14.10;78.52;101003.34;146607;574;46014;-79
2021/11/23 02:46:30;;;;;;;;;65.75;51.25;;;;;14.14;78.25;101003.47;146606;583;46012;-80
2021/11/23 02:49:24;;;;;;;;;68.25;51.00;;;;;14.14;78.20;101006.06;146607;597;46010;-81
2021/11/23 02:52:17;;;;;;;;;64.50;49.50;;;;;14.16;78.67;101007.94;146604;589;46913;-82
2021/11/23 02:55:10;;;;;;;;;65.25;50.00;;;;;14.18;78.75;101010.63;146607;639;46010;-80
2021/11/23 02:58:02;;;;;;;;;64.75;49.00;;;;;14.18;79.21;101008.91;146605;578;46016;-80
2021/11/23 03:00:54;;;;;;;;;66.50;51.25;;;;;14.15;79.61;101011.38;146608;597;46021;-79
2021/11/23 03:03:47;;;;;;;;;67.25;51.75;;;;;14.10;79.21;101013.78;146604;585;46037;-80
2021/11/23 03:06:39;;;;;;;;;69.00;52.00;;;;;14.08;79.21;101015.44;146607;574;46010;-79
2021/11/23 03:09:31;;;;;;;;;70.75;51.75;;;;;14.08;78.74;101017.13;146606;576;46017;-76
2021/11/23 03:12:27;;;;;;;;;68.50;54.50;;;;;14.05;78.83;101017.94;146607;577;46010;-81
2021/11/23 03:15:21;;;;;;;;;72.00;55.25;;;;;14.07;78.79;101021.47;146605;582;46012;-76
2021/11/23 03:18:14;;;;;;;;;67.25;51.50;;;;;14.09;78.69;101024.16;146608;591;46020;-78
2021/11/23 03:21:06;;;;;;;;;69.50;53.25;;;;;14.09;78.98;101024.16;146605;628;46913;-79
2021/11/23 03:23:58;;;;;;;;;66.75;51.00;;;;;14.09;78.70;101030.25;146607;626;46020;-79
2021/11/23 03:26:51;;;;;;;;;70.50;51.50;;;;;14.10;78.85;101032.03;146605;571;46017;-78
2021/11/23 03:29:45;;;;;;;;;67.00;51.25;;;;;14.09;78.91;101021.56;146609;569;46010;-78
2021/11/23 03:32:38;;;;;;;;;65.50;50.00;;;;;14.09;78.93;101026.75;146603;571;46017;-78
2021/11/23 03:35:33;;;;;;;;;65.00;49.75;;;;;14.08;79.43;101018.06;146573;553;61010;-78
2021/11/23 03:38:25;;;;;;;;;63.25;48.50;;;;;14.06;78.93;101026.63;146607;590;46014;-81
2021/11/23 03:41:17;;;;;;;;;59.00;46.25;;;;;14.06;79.16;101019.69;146606;569;47010;-78
2021/11/23 03:44:10;;;;;;;;;62.00;47.75;;;;;14.07;79.12;101024.06;146603;569;47014;-83
2021/11/23 03:47:03;;;;;;;;;58.00;45.75;;;;;14.09;79.14;101018.94;146610;564;46021;-83
2021/11/23 03:49:56;;;;;;;;;57.25;44.00;;;;;14.10;79.24;101018.09;146606;666;46012;-82
2021/11/23 03:52:49;;;;;;;;;53.75;41.00;;;;;14.10;78.76;101018.09;146608;642;46020;-82
2021/11/23 03:55:48;;;;;;;;;49.25;40.00;;;;;14.10;78.72;101008.56;146604;598;46016;-81
2021/11/23 03:58:40;;;;;;;;;50.00;40.75;;;;;14.10;78.62;101007.69;146609;595;46010;-81
2021/11/23 04:01:33;;;;;;;;;48.75;38.25;;;;;14.10;78.72;101011.16;146605;590;46017;-80
2021/11/23 04:04:25;;;;;;;;;52.75;41.00;;;;;13.16;79.35;100868.22;146608;600;45021;-80
2021/11/23 04:07:17;;;;;;;;;52.50;40.25;;;;;14.05;79.58;101015.31;146606;622;46016;-80
2021/11/23 04:10:14;;;;;;;;;47.00;38.00;;;;;14.01;79.05;101016.00;146607;573;46020;-79
2021/11/23 04:13:06;;;;;;;;;55.50;43.00;;;;;13.97;79.40;101010.59;146607;617;45016;-79
2021/11/23 04:15:58;;;;;;;;;53.75;42.50;;;;;13.95;78.87;101010.53;146605;614;46020;-80
2021/11/23 04:18:50;;;;;;;;;50.25;42.00;;;;;13.93;78.77;101006.97;146606;571;46033;-82
2021/11/23 04:21:43;;;;;;;;;51.25;42.00;;;;;13.94;78.97;101013.09;146609;581;46010;-82
2021/11/23 04:24:36;;;;;;;;;52.50;43.50;;;;;13.93;79.02;101019.13;146606;581;46017;-79
2021/11/23 04:27:28;;;;;;;;;52.00;41.25;;;;;13.90;78.87;101019.00;146608;686;46010;-78
2021/11/23 04:30:20;;;;;;;;;56.00;44.00;;;;;13.86;78.69;101011.06;146605;577;46016;-77
2021/11/23 04:33:16;;;;;;;;;53.75;42.75;;;;;13.88;78.59;101018.03;146611;569;45021;-77
2021/11/23 04:36:09;;;;;;;;;51.00;41.75;;;;;13.86;79.19;101025.78;146607;578;46012;-75
2021/11/23 04:39:01;;;;;;;;;59.00;44.25;;;;;13.84;78.89;101027.44;146607;631;46014;-78
2021/11/23 04:41:53;;;;;;;;;52.75;41.50;;;;;13.82;79.18;101023.87;146606;570;46016;-73
2021/11/23 04:44:45;;;;;;;;;57.50;45.00;;;;;13.81;78.79;101025.59;146608;582;46010;-72
2021/11/23 04:47:41;;;;;;;;;58.25;43.00;;;;;13.83;79.01;101030.84;146604;566;46017;-73
2021/11/23 04:50:33;;;;;;;;;52.00;42.00;;;;;13.81;78.69;101038.62;146604;593;46020;-73
2021/11/23 04:53:26;;;;;;;;;57.00;45.00;;;;;12.18;78.52;100757.25;146605;570;46017;-76
2021/11/23 04:56:19;;;;;;;;;61.75;47.50;;;;;13.83;78.83;101052.62;146606;601;46020;-76
2021/11/23 04:59:11;;;;;;;;;58.25;46.00;;;;;13.85;78.96;101064.00;146606;602;47012;-74
2021/11/23 05:02:03;;;;;;;;;52.00;42.00;;;;;13.85;79.33;101071.81;146606;579;46021;-74
2021/11/23 05:04:56;;;;;;;;;60.75;46.50;;;;;13.87;79.18;101071.88;146606;628;46012;-73
2021/11/23 05:07:48;;;;;;;;;60.25;47.00;;;;;13.86;78.93;101080.50;146607;569;47010;-72
2021/11/23 05:10:41;;;;;;;;;63.25;49.00;;;;;13.85;78.67;101079.62;146605;564;46012;-72
2021/11/23 05:13:33;;;;;;;;;58.75;46.75;;;;;13.86;78.58;101076.22;146607;602;46020;-72
2021/11/23 05:16:25;;;;;;;;;61.75;48.50;;;;;13.88;78.51;101070.16;146606;594;45016;-72
2021/11/23 05:19:18;;;;;;;;;59.75;46.75;;;;;13.90;78.11;101068.53;146607;677;46010;-72
2021/11/23 05:22:10;;;;;;;;;55.00;44.25;;;;;13.91;78.46;101065.09;146607;676;46012;-72
2021/11/23 05:25:02;;;;;;;;;57.00;43.00;;;;;13.91;78.61;101058.16;146608;565;46010;-85
2021/11/23 05:27:55;;;;;;;;;57.00;44.75;;;;;13.88;78.52;101059.75;146602;577;47913;-74
2021/11/23 05:30:47;;;;;;;;;55.25;43.50;;;;;13.90;78.64;101060.72;146606;571;46021;-75
2021/11/23 05:33:39;;;;;;;;;52.25;42.50;;;;;13.88;78.49;101059.75;146604;570;46016;-77
2021/11/23 05:36:32;;;;;;;;;54.25;42.50;;;;;13.85;78.76;101065.72;146604;569;46020;-74
2021/11/23 05:39:24;;;;;;;;;55.25;42.50;;;;;13.85;78.77;101063.09;146609;575;46012;-74
2021/11/23 05:42:16;;;;;;;;;56.25;44.00;;;;;13.81;79.18;101064.69;146606;593;46020;-72
2021/11/23 05:45:11;;;;;;;;;56.25;44.00;;;;;13.80;78.98;101065.53;146604;566;46016;-72
2021/11/23 05:48:03;;;;;;;;;53.00;43.50;;;;;13.81;79.29;101064.69;146608;581;46020;-74
2021/11/23 05:50:58;;;;;;;;;60.00;44.50;;;;;13.81;79.13;101064.69;146606;577;46913;-74
2021/11/23 05:53:50;;;;;;;;;61.75;46.00;;;;;13.83;79.40;101064.75;146609;569;46014;-74
2021/11/23 05:56:42;;;;;;;;;60.50;48.25;;;;;13.84;79.04;101070.03;146606;613;46012;-74
2021/11/23 05:59:34;;;;;;;;;64.00;49.25;;;;;13.85;79.64;101069.19;146607;569;46029;-74
2021/11/23 06:02:26;;;;;;;;;61.75;47.50;;;;;12.81;79.11;100884.00;146603;679;46016;-74
2021/11/23 06:05:19;;;;;;;;;63.50;48.25;;;;;13.86;79.39;101075.31;146608;606;46010;-74
2021/11/23 06:08:11;;;;;;;;;61.50;50.25;;;;;13.85;79.53;101071.81;146605;596;46012;-74
2021/11/23 06:11:03;;;;;;;;;61.50;48.50;;;;;13.85;79.59;101073.53;146607;576;46010;-74
2021/11/23 06:13:56;;;;;;;;;58.00;45.75;;;;;13.85;79.53;101078.75;146604;638;46914;-74
2021/11/23 06:16:48;;;;;;;;;100.00;84.33;;;;;13.84;79.55;101077.84;146608;572;46020;-73
2021/11/23 06:19:41;;;;;;;;;67.00;51.75;;;;;13.82;79.58;101079.50;146605;602;46016;-73
2021/11/23 06:22:33;;;;;;;;;58.25;45.50;;;;;13.79;79.58;101075.88;146608;634;46021;-74
2021/11/23 06:25:25;;;;;;;;;45.00;36.00;;;;;13.80;79.51;101083.78;146607;628;46016;-72
2021/11/23 06:28:18;;;;;;;;;68.75;53.50;;;;;13.83;79.79;101090.81;146606;573;46020;-78
2021/11/23 06:31:11;;;;;;;;;61.75;48.00;;;;;13.86;79.72;101099.69;146604;564;46017;-79
2021/11/23 06:34:07;;;;;;;;;67.75;50.50;;;;;13.90;79.63;101089.38;146606;582;46020;-73
2021/11/23 06:37:00;;;;;;;;;67.75;52.75;;;;;13.96;79.80;101087.03;146601;735;49012;-72
2021/11/23 06:39:52;;;;;;;;;74.00;58.00;;;;;13.00;79.73;100919.56;146608;599;46021;-72
2021/11/23 06:42:45;;;;;;;;;73.50;60.25;;;;;14.06;79.54;101103.12;146605;626;46012;-75
2021/11/23 06:45:38;;;;;;;;;69.50;56.50;;;;;14.11;79.63;101098.09;146611;643;45021;-75
2021/11/23 06:48:30;;;;;;;;;74.50;58.75;;;;;14.17;79.60;101100.09;146609;564;46012;-76
2021/11/23 06:51:23;;;;;;;;;74.75;64.50;;;;;14.20;80.00;101090.69;146607;567;46020;-72
2021/11/23 06:54:15;;;;;;;;;74.00;54.50;;;;;14.23;79.26;101087.31;146605;597;46016;-80
2021/11/23 06:57:07;;;;;;;;;70.25;53.50;;;;;14.27;79.32;101084.03;146607;620;46010;-80
2021/11/23 06:59:59;;;;;;;;;73.00;58.50;;;;;14.31;79.17;101091.16;146605;596;46017;-79
2021/11/23 07:02:52;;;;;;;;;68.50;53.50;;;;;14.32;79.11;101079.88;146606;591;46020;-78
2021/11/23 07:05:44;;;;;;;;;72.75;56.00;;;;;14.36;79.35;101083.50;146604;570;46016;-82
2021/11/23 07:08:36;;;;;;;;;72.75;51.75;;;;;14.37;79.21;101082.69;146602;653;50010;-82
2021/11/23 07:11:28;;;;;;;;;71.50;54.00;;;;;14.39;79.21;101081.00;146605;597;46913;-83
2021/11/23 07:14:21;;;;;;;;;68.00;51.25;;;;;14.42;78.98;101082.03;146609;592;45020;-80
2021/11/23 07:17:13;;;;;;;;;67.50;51.50;;;;;14.43;78.90;101073.41;146605;599;46016;-77
2021/11/23 07:20:06;;;;;;;;;65.75;49.75;;;;;14.47;78.79;101077.91;146609;622;46010;-74
2021/11/23 07:22:59;;;;;;;;;73.25;55.75;;;;;14.50;79.00;101079.75;146605;564;46914;-83
2021/11/23 07:25:51;;;;;;;;;71.75;55.25;;;;;14.50;78.89;101082.34;146607;600;46020;-85
2021/11/23 07:28:43;;;;;;;;;72.50;55.25;;;;;14.49;78.74;101091.03;146604;598;46017;-83
2021/11/23 07:31:35;;;;;;;;;71.25;54.00;;;;;14.49;78.78;101094.53;146606;706;46021;-84
2021/11/23 07:34:27;;;;;;;;;72.50;54.75;;;;;14.51;78.73;101098.09;146605;644;46012;-84
2021/11/23 07:37:20;;;;;;;;;71.75;54.50;;;;;14.51;79.97;101092.00;146608;568;46032;-84
2021/11/23 07:40:14;;;;;;;;;69.75;52.50;;;;;14.53;79.50;101098.19;146606;603;46913;-87
2021/11/23 07:43:06;;;;;;;;;71.50;52.25;;;;;14.51;79.65;101094.59;146607;610;46020;-84
2021/11/23 07:45:58;;;;;;;;;75.50;60.00;;;;;14.52;79.33;101101.63;146606;622;46012;-86
2021/11/23 07:48:51;;;;;;;;;72.50;59.00;;;;;14.53;79.49;101116.44;146608;616;46010;-86
2021/11/23 07:51:43;;;;;;;;;72.00;57.00;;;;;14.55;79.67;101114.81;146606;738;46013;-83
2021/11/23 07:54:36;;;;;;;;;70.50;53.00;;;;;14.59;79.59;101119.31;146605;569;48010;-78
2021/11/23 07:57:28;;;;;;;;;67.75;50.75;;;;;14.59;79.57;101124.53;146604;611;46016;-86
2021/11/23 08:00:23;;;;;;;;;70.25;51.25;;;;;14.62;79.77;101136.81;146607;590;46010;-87
2021/11/23 08:03:15;;;;;;;;;67.00;50.75;;;;;14.63;79.16;101133.38;146605;615;46033;-82
2021/11/23 08:06:08;;;;;;;;;71.50;57.75;;;;;14.64;79.24;101137.75;146608;608;46034;-83
2021/11/23 08:09:01;;;;;;;;;71.00;54.00;;;;;14.62;79.14;101142.03;146605;728;46016;-84
2021/11/23 08:11:53;;;;;;;;;74.25;56.75;;;;;14.63;78.88;101136.88;146609;616;46014;-84
2021/11/23 08:14:45;;;;;;;;;71.00;56.00;;;;;14.64;79.03;101142.97;146601;591;47012;-83
2021/11/23 08:17:37;;;;;;;;;73.50;57.00;;;;;14.67;79.06;101140.47;146606;593;46914;-82
2021/11/23 08:20:29;;;;;;;;;70.50;57.25;;;;;14.68;79.04;101137.97;146606;571;46016;-83
2021/11/23 08:23:22;;;;;;;;;70.25;52.75;;;;;14.69;80.06;101134.50;146608;622;46021;-83
2021/11/23 08:26:14;;;;;;;;;79.25;60.00;;;;;14.69;80.06;101129.28;146604;569;46016;-83
2021/11/23 08:29:06;;;;;;;;;69.50;52.00;;;;;14.67;80.29;101120.53;146607;632;46020;-83
2021/11/23 08:31:59;;;;;;;;;70.00;54.00;;;;;14.67;80.10;101117.00;146605;684;46016;-82
2021/11/23 08:34:51;;;;;;;;;72.25;57.00;;;;;14.70;79.56;101114.50;146609;680;46020;-82
2021/11/23 08:37:44;;;;;;;;;72.25;55.75;;;;;14.75;79.82;101113.88;146604;570;46016;-83
2021/11/23 08:40:38;;;;;;;;;74.25;58.25;;;;;14.77;79.98;101117.44;146606;583;46020;-83
2021/11/23 08:43:30;;;;;;;;;80.00;61.00;;;;;14.70;79.97;101094.56;146606;584;46016;-83
2021/11/23 08:46:23;;;;;;;;;77.50;63.25;;;;;14.82;80.39;101119.34;146605;569;46021;-83
2021/11/23 08:49:15;;;;;;;;;71.25;55.25;;;;;14.86;81.35;101126.47;146601;577;46029;-84
2021/11/23 08:52:08;;;;;;;;;70.25;53.50;;;;;14.86;80.80;101121.25;146604;580;46020;-83
2021/11/23 08:55:01;;;;;;;;;68.75;52.50;;;;;14.49;80.07;101063.22;146604;588;46016;-82
2021/11/23 08:57:53;;;;;;;;;67.00;50.50;;;;;14.91;79.79;101128.44;146606;598;46020;-83
2021/11/23 09:00:45;;;;;;;;;67.50;51.00;;;;;14.96;80.24;101136.47;146605;590;46014;-81
2021/11/23 09:03:39;;;;;;;;;67.25;51.25;;;;;14.98;80.16;101138.31;146608;589;46010;-81
2021/11/23 09:06:32;;;;;;;;;68.50;51.00;;;;;15.07;80.04;101142.09;146604;617;46016;-82
2021/11/23 09:09:27;;;;;;;;;68.50;53.75;;;;;15.15;79.50;101143.31;146610;684;46014;-81
2021/11/23 09:12:20;;;;;;;;;70.75;56.25;;;;;15.28;79.39;101149.91;146605;601;46913;-81
2021/11/23 09:15:12;;;;;;;;;72.25;60.75;;;;;15.38;78.88;101149.41;146608;595;46021;-81
2021/11/23 09:18:04;;;;;;;;;75.75;62.75;;;;;15.48;78.72;101159.37;146605;708;46016;-75
2021/11/23 09:20:57;;;;;;;;;86.00;68.75;;;;;15.54;78.19;101156.13;146606;651;46020;-77
2021/11/23 09:23:49;;;;;;;;;79.00;71.25;;;;;15.62;78.02;101157.31;146605;581;46017;-77
2021/11/23 09:26:44;;;;;;;;;73.50;58.00;;;;;15.63;78.40;101154.72;146608;594;46010;-78
2021/11/23 09:29:36;;;;;;;;;72.75;56.25;;;;;15.62;78.07;101155.56;146604;581;46016;-79
2021/11/23 09:32:29;;;;;;;;;78.75;66.75;;;;;15.60;77.79;101152.00;146608;591;46010;-76
2021/11/23 09:35:22;;;;;;;;;78.00;69.00;;;;;15.64;77.74;101155.66;146607;590;46016;-81
2021/11/23 09:38:14;;;;;;;;;80.50;70.75;;;;;15.68;77.82;101149.72;146610;597;46010;-75
2021/11/23 09:41:09;;;;;;;;;77.75;68.75;;;;;15.72;77.97;101143.78;146607;588;46016;-81
2021/11/23 09:44:01;;;;;;;;;78.00;67.00;;;;;15.81;78.38;101151.06;146610;643;46021;-81
2021/11/23 09:46:53;;;;;;;;;73.50;58.75;;;;;15.85;77.94;101150.34;146606;567;46016;-78
2021/11/23 09:49:46;;;;;;;;;73.00;56.00;;;;;15.84;78.45;101151.19;146607;729;46020;-78
2021/11/23 09:52:40;;;;;;;;;73.00;59.25;;;;;15.81;78.87;101158.91;146606;601;46016;-78
2021/11/23 09:55:32;;;;;;;;;76.00;60.50;;;;;15.78;78.92;101161.41;146606;611;46029;-74
2021/11/23 09:58:26;;;;;;;;;71.25;54.50;;;;;15.73;79.34;101150.75;146605;715;46015;-76
2021/11/23 10:01:18;;;;;;;;;65.75;51.00;;;;;14.72;78.82;100980.63;146610;706;46010;-78
2021/11/23 10:04:12;;;;;;;;;68.50;50.75;;;;;15.60;78.88;101141.53;146606;679;46012;-81
2021/11/23 10:07:12;;;;;;;;;75.25;54.00;;;;;15.67;78.53;101143.62;146608;582;46020;-81
2021/11/23 10:10:27;;;;;;;;;68.50;52.25;;;;;15.70;78.72;101138.50;146605;609;46012;-81
2021/11/23 10:13:21;;;;;;;;;67.50;51.75;;;;;15.73;79.16;101134.19;146605;611;46021;-81
2021/11/23 10:16:13;;;;;;;;;65.25;51.25;;;;;15.78;78.69;101135.28;146607;563;46911;-81
2021/11/23 10:19:11;;;;;;;;;62.50;47.75;;;;;15.81;78.84;101132.75;146608;647;46029;-83
2021/11/23 10:22:04;;;;;;;;;61.00;47.25;;;;;15.86;78.57;101128.59;146605;606;46016;-82
2021/11/23 10:25:03;;;;;;;;;61.50;50.00;;;;;15.94;78.79;101121.91;146608;607;46020;-81
2021/11/23 10:27:55;;;;;;;;;70.00;53.25;;;;;16.04;78.70;101117.88;146606;604;46013;-82
2021/11/23 10:30:51;;;;;;;;;71.00;55.75;;;;;16.11;78.88;101118.16;146607;563;46010;-81
2021/11/23 10:33:43;;;;;;;;;65.50;51.00;;;;;16.20;78.98;101119.31;146605;628;46014;-77
2021/11/23 10:36:41;;;;;;;;;66.00;50.75;;;;;16.26;78.77;101127.38;146608;607;47010;-84
2021/11/23 10:39:34;;;;;;;;;67.25;53.00;;;;;16.33;79.11;101124.16;146605;618;46027;-88
2021/11/23 10:42:36;;;;;;;;;69.75;53.75;;;;;16.38;78.33;101127.78;146563;641;65020;-76
2021/11/23 10:45:29;;;;;;;;;68.00;52.50;;;;;16.41;79.65;101127.91;146607;611;46016;-80
2021/11/23 10:48:23;;;;;;;;;61.25;48.00;;;;;16.28;79.46;101131.81;146608;569;46020;-80
2021/11/23 10:51:16;;;;;;;;;66.50;49.50;;;;;16.14;79.11;101128.75;146604;576;46912;-80
2021/11/23 10:54:22;;;;;;;;;58.50;45.00;;;;;16.10;79.30;101141.66;146605;570;46020;-79
2021/11/23 10:57:14;;;;;;;;;55.00;43.75;;;;;15.97;79.77;101142.94;146607;674;46015;-79
2021/11/23 11:00:07;;;;;;;;;53.00;41.25;;;;;15.85;79.39;101143.38;146609;578;46010;-86
2021/11/23 11:03:02;;;;;;;;;55.00;44.75;;;;;15.75;80.11;101143.00;146605;580;47016;-85
2021/11/23 11:05:54;;;;;;;;;53.75;42.00;;;;;15.67;79.88;101143.62;146608;575;46014;-85
2021/11/23 11:08:50;;;;;;;;;54.50;43.00;;;;;15.63;80.04;101136.44;146605;566;46037;-87
2021/11/23 11:11:42;;;;;;;;;55.75;44.50;;;;;15.62;79.67;101134.66;146607;638;46020;-85
2021/11/23 11:14:37;;;;;;;;;53.25;42.75;;;;;15.68;79.78;101129.69;146607;570;45033;-85
2021/11/23 11:17:29;;;;;;;;;54.75;44.25;;;;;15.75;80.09;101129.94;146609;563;46010;-86
2021/11/23 11:21:04;;;;;;;;;56.50;43.00;;;;;14.84;79.79;100967.16;146606;576;47012;-86
2021/11/23 11:23:58;;;;;;;;;56.75;43.50;;;;;15.83;79.73;101124.16;146608;565;46010;-84
2021/11/23 11:26:54;;;;;;;;;51.25;40.50;;;;;15.88;79.98;101133.03;146608;571;46012;-86
2021/11/23 11:29:47;;;;;;;;;56.50;43.00;;;;;15.87;79.92;101131.25;146607;612;47010;-84
2021/11/23 11:32:40;;;;;;;;;52.50;40.25;;;;;15.84;80.13;101123.31;146605;759;46014;-84
2021/11/23 11:35:52;;;;;;;;;53.75;41.50;;;;;15.80;80.06;101124.03;146609;630;46010;-84
2021/11/23 11:38:45;;;;;;;;;55.75;42.25;;;;;15.71;80.12;101131.53;146606;671;46012;-85
2021/11/23 11:41:44;;;;;;;;;54.25;44.00;;;;;15.64;79.91;101133.00;146608;618;46020;-84
2021/11/23 11:44:57;;;;;;;;;56.50;44.50;;;;;15.60;80.05;101135.44;146603;625;46016;-83
2021/11/23 11:47:51;;;;;;;;;52.50;43.50;;;;;15.58;80.80;101137.12;146609;602;46010;-85
2021/11/23 11:51:04;;;;;;;;;57.75;44.75;;;;;15.52;80.88;101139.50;146606;573;46012;-85
2021/11/23 11:53:56;;;;;;;;;58.75;46.50;;;;;15.48;80.52;101136.78;146606;574;46010;-85
2021/11/23 11:56:50;;;;;;;;;58.00;45.50;;;;;15.48;80.52;101134.16;146606;593;46012;-84
2021/11/23 11:59:43;;;;;;;;;55.50;41.75;;;;;15.49;80.68;101127.19;146607;635;46021;-84
2021/11/23 12:02:35;;;;;;;;;52.00;40.50;;;;;15.49;80.62;101129.81;146605;580;46016;-84
2021/11/23 12:05:27;;;;;;;;;56.00;44.50;;;;;15.49;80.20;101132.44;146606;626;46020;-84
2021/11/23 12:08:38;;;;;;;;;52.00;42.75;;;;;15.51;80.33;101133.34;146605;564;46016;-84
2021/11/23 12:11:37;;;;;;;;;58.50;45.25;;;;;15.48;80.97;101136.78;146607;613;46020;-85
2021/11/23 12:14:38;;;;;;;;;61.25;48.50;;;;;15.48;80.65;101135.84;146599;570;47912;-87
2021/11/23 12:17:59;;;;;;;;;63.25;48.25;;;;;15.51;80.41;101135.09;146608;611;46010;-81
2021/11/23 12:21:08;;;;;;;;;56.50;44.25;;;;;15.53;80.90;101133.44;146605;653;46013;-80
2021/11/23 12:24:08;;;;;;;;;56.50;44.25;;;;;15.51;81.23;101127.25;146606;619;46010;-79
2021/11/23 12:27:10;;;;;;;;;60.25;46.00;;;;;15.48;81.01;101131.53;146607;592;46016;-80
2021/11/23 12:30:02;;;;;;;;;57.75;45.00;;;;;15.49;80.96;101132.44;146610;575;46020;-81
2021/11/23 12:32:54;;;;;;;;;56.50;45.00;;;;;15.47;81.67;101139.31;146605;565;46911;-81
2021/11/23 12:35:48;;;;;;;;;70.75;55.25;;;;;15.38;81.71;101137.22;146606;566;46021;-82
2021/11/23 12:38:40;;;;;;;;;72.50;57.50;;;;;15.30;81.72;101132.56;146608;578;46012;-82
2021/11/23 12:41:32;;;;;;;;;63.75;46.50;;;;;15.23;81.44;101127.09;146608;651;46020;-81
2021/11/23 12:44:34;;;;;;;;;54.25;44.00;;;;;15.22;81.27;101127.91;146607;725;46012;-82
2021/11/23 12:47:26;;;;;;;;;60.25;47.75;;;;;15.23;80.96;101123.56;146611;633;45020;-81
2021/11/23 12:50:18;;;;;;;;;58.75;46.50;;;;;15.27;81.09;101114.16;146604;564;46019;-81
2021/11/23 12:53:19;;;;;;;;;68.75;52.25;;;;;15.32;81.09;101105.66;146606;650;46020;-81
2021/11/23 12:56:11;;;;;;;;;60.50;48.00;;;;;15.39;81.09;101101.53;146605;615;47014;-81
2021/11/23 12:59:03;;;;;;;;;55.75;42.75;;;;;15.49;81.47;101093.22;146608;633;46010;-81
2021/11/23 13:01:56;;;;;;;;;56.00;44.75;;;;;15.57;81.31;101093.50;146607;647;46012;-81
2021/11/23 13:04:48;;;;;;;;;59.50;47.75;;;;;15.61;82.04;101101.53;146609;574;45021;-80
2021/11/23 13:08:10;;;;;;;;;59.50;47.50;;;;;15.61;82.20;101111.09;146607;569;46012;-81
2021/11/23 13:11:04;;;;;;;;;61.75;49.50;;;;;15.56;81.86;101116.13;146610;648;46027;-81